createdAt,value
2019-01-19T00:01:14.917Z,19.37
2019-01-19T00:04:13.712Z,19.63
2019-01-19T00:07:38.865Z,22.17
2019-01-19T00:10:26.978Z,19.77
2019-01-19T00:13:37.633Z,18.87
2019-01-19T00:16:24.350Z,21.00
2019-01-19T00:19:34.137Z,20.43
2019-01-19T00:22:47.618Z,26.50
2019-01-19T00:26:13.589Z,22.23
2019-01-19T00:28:53.277Z,24.53
2019-01-19T00:31:28.677Z,24.40
2019-01-19T00:34:24.616Z,19.20
2019-01-19T00:37:12.461Z,18.90
2019-01-19T00:40:18.512Z,23.20
2019-01-19T00:43:30.515Z,22.53
2019-01-19T00:46:29.307Z,16.37
2019-01-19T00:49:29.843Z,19.30
2019-01-19T00:52:50.341Z,19.93
2019-01-19T00:56:06.337Z,21.03
2019-01-19T00:59:04.182Z,17.57
2019-01-19T01:02:36.791Z,27.33
2019-01-19T01:05:25.489Z,25.63
2019-01-19T01:08:49.020Z,22.53
2019-01-19T01:11:46.845Z,23.07
2019-01-19T01:14:37.749Z,21.57
2019-01-19T01:17:48.521Z,22.63
2019-01-19T01:21:05.283Z,26.20
2019-01-19T01:24:18.616Z,36.93
2019-01-19T01:27:34.053Z,26.00
2019-01-19T01:30:43.080Z,26.53
2019-01-19T01:33:44.024Z,24.43
2019-01-19T01:36:53.824Z,28.20
2019-01-19T01:39:59.534Z,30.80
2019-01-19T01:43:11.232Z,26.63
2019-01-19T01:46:31.364Z,27.40
2019-01-19T01:49:29.939Z,33.50
2019-01-19T01:52:18.050Z,31.73
2019-01-19T01:55:18.273Z,30.53
2019-01-19T01:58:09.078Z,37.10
2019-01-19T02:01:04.493Z,53.10
2019-01-19T02:04:16.834Z,29.83
2019-01-19T02:07:25.571Z,24.83
2019-01-19T02:10:29.133Z,25.30
2019-01-19T02:13:27.352Z,39.80
2019-01-19T02:16:52.652Z,26.60
2019-01-19T02:20:03.951Z,21.53
2019-01-19T02:23:19.833Z,32.70
2019-01-19T02:26:38.912Z,34.90
2019-01-19T02:29:44.564Z,33.17
2019-01-19T02:32:26.830Z,31.87
2019-01-19T02:35:48.618Z,25.90
2019-01-19T02:39:12.583Z,23.73
2019-01-19T02:42:15.514Z,28.23
2019-01-19T02:44:56.299Z,23.20
2019-01-19T02:47:59.834Z,18.33
2019-01-19T02:50:35.741Z,17.77
2019-01-19T02:54:05.007Z,20.83
2019-01-19T02:57:24.130Z,20.23
2019-01-19T03:00:24.711Z,19.50
2019-01-19T03:03:09.769Z,19.20
2019-01-19T03:05:58.229Z,20.13
2019-01-19T03:09:12.897Z,16.57
2019-01-19T03:12:25.305Z,16.30
2019-01-19T03:15:37.512Z,17.70
2019-01-19T03:18:43.430Z,14.77
2019-01-19T03:21:50.559Z,15.13
2019-01-19T03:24:43.821Z,15.53
2019-01-19T03:27:39.904Z,13.30
2019-01-19T03:30:33.579Z,17.77
2019-01-19T03:33:53.806Z,16.63
2019-01-19T03:37:15.648Z,26.47
2019-01-19T03:40:05.352Z,17.10
2019-01-19T03:43:08.992Z,18.27
2019-01-19T03:46:29.432Z,17.77
2019-01-19T03:49:30.333Z,17.00
2019-01-19T03:52:17.449Z,24.50
2019-01-19T03:54:57.225Z,17.87
2019-01-19T03:58:15.898Z,21.17
2019-01-19T04:01:25.237Z,15.17
2019-01-19T04:04:20.190Z,14.50
2019-01-19T04:07:28.441Z,15.57
2019-01-19T04:10:30.309Z,14.93
2019-01-19T04:13:40.889Z,15.17
2019-01-19T04:16:43.260Z,13.10
2019-01-19T04:20:00.183Z,12.60
2019-01-19T04:22:58.822Z,13.90
2019-01-19T04:26:08.684Z,14.80
2019-01-19T04:28:39.338Z,13.93
2019-01-19T04:31:09.806Z,12.83
2019-01-19T04:33:40.301Z,14.57
2019-01-19T04:36:11.529Z,13.23
2019-01-19T04:38:42.189Z,13.87
2019-01-19T04:41:12.761Z,12.10
2019-01-19T04:43:43.235Z,14.00
2019-01-19T04:46:13.662Z,15.23
2019-01-19T04:48:44.370Z,13.83
2019-01-19T04:51:14.822Z,14.90
2019-01-19T04:53:45.245Z,12.50
2019-01-19T04:56:15.778Z,14.33
2019-01-19T04:58:46.201Z,14.00
2019-01-19T05:01:16.847Z,13.00
2019-01-19T05:03:47.264Z,13.10
2019-01-19T05:06:17.742Z,15.30
2019-01-19T05:08:48.246Z,12.07
2019-01-19T05:11:18.965Z,10.83
2019-01-19T05:13:49.381Z,11.73
2019-01-19T05:16:19.805Z,11.07
2019-01-19T05:18:50.234Z,11.63
2019-01-19T05:21:20.970Z,11.93
2019-01-19T05:23:51.502Z,8.40
2019-01-19T05:26:21.925Z,9.70
2019-01-19T05:28:52.522Z,11.40
2019-01-19T05:31:22.995Z,10.37
2019-01-19T05:33:53.411Z,8.90
2019-01-19T05:36:23.832Z,9.03
2019-01-19T05:38:54.262Z,9.30
2019-01-19T05:41:24.694Z,9.63
2019-01-19T05:43:55.146Z,9.70
2019-01-19T05:46:25.543Z,9.30
2019-01-19T05:48:55.983Z,8.93
2019-01-19T05:51:26.399Z,8.03
2019-01-19T05:53:56.825Z,8.90
2019-01-19T05:56:27.249Z,8.27
2019-01-19T05:58:57.677Z,8.63
2019-01-19T06:01:28.503Z,12.33
2019-01-19T06:03:58.945Z,11.13
2019-01-19T06:06:29.446Z,10.50
2019-01-19T06:08:59.956Z,8.80
2019-01-19T06:11:30.533Z,9.03
2019-01-19T06:14:01.190Z,8.70
2019-01-19T06:16:31.590Z,9.20
2019-01-19T06:19:02.210Z,9.03
2019-01-19T06:21:36.030Z,7.60
2019-01-19T06:24:06.557Z,9.23
2019-01-19T06:26:36.983Z,7.93
2019-01-19T06:29:07.580Z,8.83
2019-01-19T06:31:38.043Z,10.87
2019-01-19T06:34:08.474Z,8.73
2019-01-19T06:36:39.003Z,9.00
2019-01-19T06:39:10.346Z,9.17
2019-01-19T06:41:40.793Z,9.80
2019-01-19T06:44:11.203Z,9.10
2019-01-19T06:46:41.660Z,9.87
2019-01-19T06:49:12.053Z,9.10
2019-01-19T06:51:43.609Z,9.97
2019-01-19T06:54:15.114Z,11.30
2019-01-19T06:56:45.589Z,10.17
2019-01-19T06:59:17.446Z,9.30
2019-01-19T07:01:48.182Z,9.80
2019-01-19T07:04:18.831Z,10.57
2019-01-19T07:06:49.570Z,10.53
2019-01-19T07:09:20.009Z,11.53
2019-01-19T07:11:50.713Z,11.27
2019-01-19T07:14:21.149Z,11.27
2019-01-19T07:16:51.696Z,11.73
2019-01-19T07:19:22.105Z,11.93
2019-01-19T07:21:52.524Z,13.20
2019-01-19T07:24:22.950Z,11.83
2019-01-19T07:26:53.379Z,12.60
2019-01-19T07:29:23.906Z,12.27
2019-01-19T07:31:54.334Z,12.57
2019-01-19T07:34:24.761Z,10.77
2019-01-19T07:36:55.186Z,10.70
2019-01-19T07:39:25.612Z,11.93
2019-01-19T07:41:56.041Z,11.63
2019-01-19T07:44:26.477Z,10.47
2019-01-19T07:46:57.883Z,10.77
2019-01-19T07:49:28.370Z,10.73
2019-01-19T07:51:58.874Z,11.27
2019-01-19T07:54:29.302Z,10.13
2019-01-19T07:56:59.728Z,11.47
2019-01-19T07:59:30.160Z,11.57
2019-01-19T08:02:00.583Z,10.40
2019-01-19T08:04:31.226Z,11.50
2019-01-19T08:07:01.717Z,11.10
2019-01-19T08:09:32.198Z,11.00
2019-01-19T08:12:02.706Z,11.63
2019-01-19T08:14:33.130Z,11.47
2019-01-19T08:17:03.553Z,11.03
2019-01-19T08:19:34.025Z,10.20
2019-01-19T08:22:04.624Z,13.43
2019-01-19T08:24:35.050Z,12.23
2019-01-19T08:27:05.467Z,12.70
2019-01-19T08:29:36.066Z,10.40
2019-01-19T08:32:06.697Z,12.00
2019-01-19T08:34:37.159Z,11.80
2019-01-19T08:37:07.594Z,11.77
2019-01-19T08:39:38.115Z,11.27
2019-01-19T08:42:08.542Z,10.63
2019-01-19T08:44:38.969Z,18.77
2019-01-19T08:47:09.409Z,13.33
2019-01-19T08:49:39.822Z,12.37
2019-01-19T08:52:10.397Z,22.67
2019-01-19T08:54:40.896Z,10.00
2019-01-19T08:57:11.310Z,13.00
2019-01-19T08:59:41.736Z,13.60
2019-01-19T09:02:12.266Z,14.27
2019-01-19T09:04:42.688Z,11.87
2019-01-19T09:07:13.190Z,10.80
2019-01-19T09:09:43.676Z,13.00
2019-01-19T09:12:14.178Z,9.37
2019-01-19T09:14:44.605Z,9.93
2019-01-19T09:17:15.032Z,9.20
2019-01-19T09:19:45.457Z,9.63
2019-01-19T09:22:15.886Z,9.73
2019-01-19T09:24:46.373Z,9.77
2019-01-19T09:27:16.842Z,8.53
2019-01-19T09:29:47.270Z,8.37
2019-01-19T09:32:18.185Z,11.27
2019-01-19T09:34:48.635Z,13.00
2019-01-19T09:37:19.057Z,10.00
2019-01-19T09:39:49.601Z,7.30
2019-01-19T09:42:20.018Z,6.87
2019-01-19T09:44:50.446Z,5.43
2019-01-19T09:47:20.974Z,6.77
2019-01-19T09:49:51.401Z,9.63
2019-01-19T09:52:21.829Z,7.70
2019-01-19T09:54:52.254Z,6.33
2019-01-19T09:57:22.705Z,6.23
2019-01-19T09:59:53.105Z,5.77
2019-01-19T10:02:23.509Z,5.63
2019-01-19T10:04:53.962Z,5.70
2019-01-19T10:07:24.766Z,5.53
2019-01-19T10:09:55.360Z,5.17
2019-01-19T10:12:25.858Z,4.20
2019-01-19T10:14:56.285Z,4.57
2019-01-19T10:17:26.716Z,4.10
2019-01-19T10:19:57.139Z,3.40
2019-01-19T10:22:27.565Z,3.20
2019-01-19T10:24:57.990Z,3.33
2019-01-19T10:27:28.475Z,2.80
2019-01-19T10:29:58.951Z,2.97
2019-01-19T10:32:29.846Z,2.87
2019-01-19T10:35:00.318Z,3.03
2019-01-19T10:37:30.742Z,3.13
2019-01-19T10:40:01.169Z,2.60
2019-01-19T10:42:31.596Z,3.17
2019-01-19T10:45:02.033Z,2.70
2019-01-19T10:47:32.449Z,2.37
2019-01-19T10:50:02.977Z,2.20
2019-01-19T10:52:33.417Z,2.17
2019-01-19T10:55:03.845Z,2.22
2019-01-19T10:57:34.260Z,2.33
2019-01-19T11:00:05.906Z,1.40
2019-01-19T11:02:36.342Z,1.80
2019-01-19T11:05:08.836Z,2.58
2019-01-19T11:07:40.120Z,1.45
2019-01-19T11:10:14.282Z,1.70
2019-01-19T11:12:44.705Z,1.50
2019-01-19T11:15:16.109Z,1.32
2019-01-19T11:17:46.592Z,3.20
2019-01-19T11:20:19.422Z,1.77
2019-01-19T11:22:49.897Z,1.75
2019-01-19T11:25:20.325Z,1.57
2019-01-19T11:27:50.749Z,2.67
2019-01-19T11:30:23.465Z,3.92
2019-01-19T11:32:54.354Z,2.60
2019-01-19T11:35:24.897Z,1.55
2019-01-19T11:37:55.325Z,1.67
2019-01-19T11:40:31.489Z,3.05
2019-01-19T11:43:01.913Z,1.32
2019-01-19T11:45:32.506Z,1.70
2019-01-19T11:48:02.973Z,1.52
2019-01-19T11:50:33.411Z,1.50
2019-01-19T11:53:03.830Z,1.30
2019-01-19T11:55:34.357Z,1.20
2019-01-19T11:58:06.333Z,1.50
2019-01-19T12:00:38.848Z,1.00
2019-01-19T12:03:09.355Z,1.30
2019-01-19T12:05:40.622Z,1.50
2019-01-19T12:08:19.247Z,0.95
2019-01-19T12:10:44.713Z,1.20
2019-01-19T12:13:15.129Z,10.72
2019-01-19T12:15:45.556Z,5.53
2019-01-19T12:18:15.984Z,10.32
2019-01-19T12:20:51.280Z,1.25
2019-01-19T12:23:21.763Z,7.22
2019-01-19T12:25:52.180Z,9.60
2019-01-19T12:28:22.618Z,10.48
2019-01-19T12:30:53.030Z,2.55
2019-01-19T12:33:24.085Z,4.10
2019-01-19T12:35:54.501Z,3.02
2019-01-19T12:38:27.063Z,6.42
2019-01-19T12:40:57.094Z,4.58
2019-01-19T12:43:27.625Z,5.85
2019-01-19T12:46:09.579Z,1.10
2019-01-19T12:48:40.060Z,3.92
2019-01-19T12:51:12.681Z,3.37
2019-01-19T12:53:43.158Z,2.30
2019-01-19T12:56:13.587Z,4.23
2019-01-19T12:58:44.010Z,3.63
2019-01-19T13:01:14.438Z,3.47
2019-01-19T13:03:45.334Z,3.03
2019-01-19T13:06:47.048Z,0.97
2019-01-19T13:09:37.915Z,1.73
2019-01-19T13:12:22.411Z,1.47
2019-01-19T13:15:23.559Z,1.43
2019-01-19T13:18:45.277Z,4.30
2019-01-19T13:22:04.056Z,2.67
2019-01-19T13:25:06.376Z,2.40
2019-01-19T13:27:55.137Z,0.80
2019-01-19T13:31:25.696Z,1.50
2019-01-19T13:34:38.184Z,2.00
2019-01-19T13:38:02.828Z,2.95
2019-01-19T13:41:09.594Z,2.10
2019-01-19T13:44:15.553Z,1.50
2019-01-19T13:47:10.635Z,4.03
2019-01-19T13:50:12.274Z,3.33
2019-01-19T13:53:08.464Z,11.80
2019-01-19T13:56:02.690Z,4.60
2019-01-19T13:59:05.637Z,8.97
2019-01-19T14:02:10.969Z,8.03
2019-01-19T14:05:34.661Z,7.13
2019-01-19T14:08:21.563Z,39.90
2019-01-19T14:11:50.573Z,4.77
2019-01-19T14:14:59.604Z,12.43
2019-01-19T14:18:24.565Z,1.83
2019-01-19T14:21:50.838Z,6.37
2019-01-19T14:24:57.730Z,4.17
2019-01-19T14:28:39.120Z,2.23
2019-01-19T14:32:03.461Z,1.17
2019-01-19T14:35:14.386Z,1.70
2019-01-19T14:38:34.172Z,1.30
2019-01-19T14:41:43.601Z,1.90
2019-01-19T14:45:01.543Z,1.40
2019-01-19T14:47:47.194Z,7.10
2019-01-19T14:51:03.439Z,54.27
2019-01-19T14:53:58.954Z,19.87
2019-01-19T14:57:08.088Z,20.27
2019-01-19T15:00:31.252Z,13.07
2019-01-19T15:03:51.028Z,3.67
2019-01-19T15:06:59.249Z,7.70
2019-01-19T15:10:10.021Z,14.07
2019-01-19T15:13:17.313Z,3.50
2019-01-19T15:16:31.363Z,1.80
2019-01-19T15:19:42.738Z,9.60
2019-01-19T15:22:49.632Z,8.00
2019-01-19T15:26:07.982Z,6.70
2019-01-19T15:29:25.309Z,19.47
2019-01-19T15:32:37.926Z,8.00
2019-01-19T15:35:28.582Z,3.73
2019-01-19T15:38:51.077Z,3.47
2019-01-19T15:41:57.957Z,2.63
2019-01-19T15:44:44.818Z,3.17
2019-01-19T15:48:02.867Z,3.37
2019-01-19T15:51:05.802Z,2.23
2019-01-19T15:54:21.478Z,8.03
2019-01-19T15:57:27.080Z,2.50
2019-01-19T16:00:38.789Z,2.80
2019-01-19T16:03:51.646Z,2.87
2019-01-19T16:06:57.872Z,2.23
2019-01-19T16:10:29.896Z,2.20
2019-01-19T16:13:17.222Z,4.57
2019-01-19T16:16:33.317Z,2.27
2019-01-19T16:19:50.117Z,2.40
2019-01-19T16:22:56.765Z,2.40
2019-01-19T16:25:59.454Z,2.80
2019-01-19T16:28:59.307Z,2.80
2019-01-19T16:32:08.107Z,2.90
2019-01-19T16:35:09.853Z,3.10
2019-01-19T16:38:26.814Z,4.10
2019-01-19T16:41:34.605Z,3.90
2019-01-19T16:44:40.371Z,2.60
2019-01-19T16:47:44.387Z,2.87
2019-01-19T16:50:55.657Z,2.53
2019-01-19T16:53:55.442Z,2.63
2019-01-19T16:56:42.252Z,3.10
2019-01-19T16:59:48.407Z,3.00
2019-01-19T17:02:44.082Z,4.00
2019-01-19T17:05:36.276Z,4.60
2019-01-19T17:08:41.666Z,5.10
2019-01-19T17:11:52.629Z,4.90
2019-01-19T17:15:12.776Z,5.43
2019-01-19T17:18:11.281Z,5.57
2019-01-19T17:21:19.521Z,6.47
2019-01-19T17:24:39.524Z,5.80
2019-01-19T17:27:45.264Z,6.53
2019-01-19T17:31:08.750Z,8.60
2019-01-19T17:34:25.579Z,7.43
2019-01-19T17:37:24.458Z,8.93
2019-01-19T17:40:50.583Z,8.87
2019-01-19T17:43:49.342Z,8.73
2019-01-19T17:47:05.370Z,10.00
2019-01-19T17:50:15.641Z,7.90
2019-01-19T17:53:37.574Z,8.00
2019-01-19T17:56:49.476Z,9.37
2019-01-19T17:59:53.234Z,7.80
2019-01-19T18:03:10.802Z,7.53
2019-01-19T18:05:54.612Z,12.80
2019-01-19T18:08:35.315Z,18.47
2019-01-19T18:11:29.769Z,10.37
2019-01-19T18:14:40.576Z,23.37
2019-01-19T18:17:42.493Z,11.27
2019-01-19T18:21:02.648Z,14.03
2019-01-19T18:23:58.409Z,29.37
2019-01-19T18:27:21.518Z,15.83
2019-01-19T18:30:25.602Z,8.80
2019-01-19T18:33:31.299Z,9.30
2019-01-19T18:36:48.729Z,5.87
2019-01-19T18:39:57.147Z,14.87
2019-01-19T18:43:02.507Z,5.17
2019-01-19T18:46:19.833Z,5.10
2019-01-19T18:49:27.284Z,6.97
2019-01-19T18:52:14.181Z,6.57
2019-01-19T18:55:28.689Z,6.03
2019-01-19T18:58:33.785Z,9.47
2019-01-19T19:01:37.800Z,11.93
2019-01-19T19:04:37.967Z,4.90
2019-01-19T19:07:36.555Z,13.43
2019-01-19T19:10:49.580Z,14.37
2019-01-19T19:13:58.408Z,5.73
2019-01-19T19:17:07.748Z,16.70
2019-01-19T19:20:11.647Z,12.20
2019-01-19T19:23:21.101Z,5.10
2019-01-19T19:26:30.542Z,6.30
2019-01-19T19:29:46.948Z,16.63
2019-01-19T19:33:25.676Z,8.83
2019-01-19T19:36:31.533Z,11.63
2019-01-19T19:39:21.406Z,19.83
2019-01-19T19:42:19.961Z,18.93
2019-01-19T19:45:42.963Z,19.40
2019-01-19T19:48:57.525Z,10.83
2019-01-19T19:52:02.961Z,11.97
2019-01-19T19:54:34.470Z,17.30
2019-01-19T19:57:05.328Z,18.83
2019-01-19T19:59:35.882Z,19.47
2019-01-19T20:02:06.612Z,9.23
2019-01-19T20:04:37.053Z,7.87
2019-01-19T20:07:07.776Z,10.90
2019-01-19T20:09:38.213Z,11.93
2019-01-19T20:12:09.469Z,14.17
2019-01-19T20:14:40.056Z,16.20
2019-01-19T20:17:10.787Z,18.07
2019-01-19T20:19:41.241Z,12.33
2019-01-19T20:22:12.161Z,12.13
2019-01-19T20:24:42.619Z,16.00
2019-01-19T20:27:13.038Z,10.63
2019-01-19T20:29:43.463Z,13.87
2019-01-19T20:32:13.888Z,11.03
2019-01-19T20:34:44.533Z,10.13
2019-01-19T20:37:15.164Z,11.80
2019-01-19T20:39:45.797Z,25.17
2019-01-19T20:42:16.313Z,23.60
2019-01-19T20:44:46.742Z,16.13
2019-01-19T20:47:17.171Z,21.13
2019-01-19T20:49:47.604Z,11.07
2019-01-19T20:52:18.236Z,15.10
2019-01-19T20:54:48.752Z,7.27
2019-01-19T20:57:19.286Z,8.97
2019-01-19T20:59:49.977Z,12.73
2019-01-19T21:02:20.447Z,10.17
2019-01-19T21:04:50.873Z,9.43
2019-01-19T21:07:21.298Z,6.60
2019-01-19T21:09:51.945Z,14.93
2019-01-19T21:12:22.577Z,25.17
2019-01-19T21:14:53.310Z,8.67
2019-01-19T21:17:23.825Z,13.03
2019-01-19T21:19:54.471Z,9.63
2019-01-19T21:22:24.973Z,17.97
2019-01-19T21:24:55.447Z,14.37
2019-01-19T21:27:25.847Z,15.67
2019-01-19T21:29:56.268Z,33.50
2019-01-19T21:32:26.712Z,38.57
2019-01-19T21:34:57.125Z,11.77
2019-01-19T21:37:27.665Z,56.67
2019-01-19T21:39:58.080Z,31.73
2019-01-19T21:42:28.620Z,21.57
2019-01-19T21:44:59.050Z,40.07
2019-01-19T21:47:29.474Z,25.83
2019-01-19T21:49:59.893Z,16.40
2019-01-19T21:52:30.381Z,44.70
2019-01-19T21:55:00.921Z,30.97
2019-01-19T21:57:31.377Z,12.10
2019-01-19T22:00:01.801Z,19.60
2019-01-19T22:02:32.229Z,14.30
2019-01-19T22:05:02.659Z,7.13
2019-01-19T22:07:33.085Z,6.47
2019-01-19T22:10:03.510Z,16.13
2019-01-19T22:12:33.938Z,10.00
2019-01-19T22:15:04.550Z,6.87
2019-01-19T22:17:39.494Z,7.03
2019-01-19T22:20:08.438Z,20.20
2019-01-19T22:22:38.933Z,22.80
2019-01-19T22:25:09.669Z,33.80
2019-01-19T22:27:43.721Z,12.07
2019-01-19T22:30:16.402Z,20.77
2019-01-19T22:32:47.901Z,32.67
2019-01-19T22:35:18.433Z,17.70
2019-01-19T22:37:48.863Z,16.93
2019-01-19T22:40:19.602Z,25.50
2019-01-19T22:42:50.031Z,13.03
2019-01-19T22:45:20.622Z,28.43
2019-01-19T22:47:51.078Z,14.37
2019-01-19T22:50:21.673Z,8.97
2019-01-19T22:52:52.251Z,7.90
2019-01-19T22:55:22.841Z,14.83
2019-01-19T22:57:53.600Z,7.37
2019-01-19T23:00:56.288Z,20.83
2019-01-19T23:03:26.888Z,7.83
2019-01-19T23:05:57.518Z,8.07
2019-01-19T23:08:28.082Z,7.37
2019-01-19T23:11:01.248Z,20.00
2019-01-19T23:13:30.572Z,7.20
2019-01-19T23:16:00.998Z,5.27
2019-01-19T23:18:31.430Z,8.87
2019-01-19T23:21:01.968Z,8.13
2019-01-19T23:23:32.388Z,5.27
2019-01-19T23:26:03.498Z,8.80
2019-01-19T23:28:34.159Z,4.60
2019-01-19T23:31:04.770Z,8.30
2019-01-19T23:33:35.217Z,6.37
2019-01-19T23:36:05.746Z,5.53
2019-01-19T23:38:36.186Z,7.47
2019-01-19T23:41:09.166Z,7.70
2019-01-19T23:43:38.769Z,6.73
2019-01-19T23:46:09.401Z,5.83
2019-01-19T23:48:39.828Z,11.47
2019-01-19T23:51:10.370Z,5.63
2019-01-19T23:53:40.838Z,5.17
2019-01-19T23:56:11.324Z,5.73
2019-01-19T23:58:41.744Z,4.53
